sensor_id;sensor_type;location;lat;lon;timestamp;pressure;altitude;pressure_sealevel;temperature;humidity
20620;BME280;10469;42.720;23.252;2023-09-19T00:00:30;95263.28;;;16.05;100.00
20620;BME280;10469;42.720;23.252;2023-09-19T00:02:57;95266.25;;;15.98;100.00
20620;BME280;10469;42.720;23.252;2023-09-19T00:05:34;95263.28;;;16.05;100.00
20620;BME280;10469;42.720;23.252;2023-09-19T00:08:01;95267.56;;;15.96;100.00
20620;BME280;10469;42.720;23.252;2023-09-19T00:10:30;95254.03;;;15.91;100.00
20620;BME280;10469;42.720;23.252;2023-09-19T00:13:01;95274.59;;;15.97;100.00
20620;BME280;10469;42.720;23.252;2023-09-19T00:15:31;95269.47;;;15.95;100.00
20620;BME280;10469;42.720;23.252;2023-09-19T00:18:01;95264.06;;;15.95;100.00
20620;BME280;10469;42.720;23.252;2023-09-19T00:20:27;95254.31;;;15.94;100.00
20620;BME280;10469;42.720;23.252;2023-09-19T00:22:53;95258.91;;;15.94;100.00
20620;BME280;10469;42.720;23.252;2023-09-19T00:25:20;95254.53;;;15.88;100.00
20620;BME280;10469;42.720;23.252;2023-09-19T00:27:47;95248.00;;;15.84;100.00
20620;BME280;10469;42.720;23.252;2023-09-19T00:30:15;95253.97;;;15.80;100.00
20620;BME280;10469;42.720;23.252;2023-09-19T00:32:42;95245.84;;;15.80;100.00
20620;BME280;10469;42.720;23.252;2023-09-19T00:35:08;95250.72;;;15.84;100.00
20620;BME280;10469;42.720;23.252;2023-09-19T00:37:37;95256.13;;;15.84;100.00
20620;BME280;10469;42.720;23.252;2023-09-19T00:40:08;95243.88;;;15.71;100.00
20620;BME280;10469;42.720;23.252;2023-09-19T00:42:41;95256.09;;;15.78;100.00
20620;BME280;10469;42.720;23.252;2023-09-19T00:45:07;95256.16;;;15.89;100.00
20620;BME280;10469;42.720;23.252;2023-09-19T00:47:36;95261.00;;;15.82;100.00
20620;BME280;10469;42.720;23.252;2023-09-19T00:50:04;95250.22;;;15.92;100.00
20620;BME280;10469;42.720;23.252;2023-09-19T00:52:34;95251.78;;;16.25;100.00
20620;BME280;10469;42.720;23.252;2023-09-19T00:55:02;95246.31;;;16.15;100.00
20620;BME280;10469;42.720;23.252;2023-09-19T00:57:28;95245.94;;;15.96;100.00
20620;BME280;10469;42.720;23.252;2023-09-19T00:59:55;95250.53;;;15.95;100.00
20620;BME280;10469;42.720;23.252;2023-09-19T01:02:21;95251.00;;;15.82;100.00
20620;BME280;10469;42.720;23.252;2023-09-19T01:04:47;95236.88;;;15.75;100.00
20620;BME280;10469;42.720;23.252;2023-09-19T01:07:13;95249.34;;;15.76;100.00
20620;BME280;10469;42.720;23.252;2023-09-19T01:09:41;95250.63;;;15.68;100.00
20620;BME280;10469;42.720;23.252;2023-09-19T01:12:07;95250.16;;;15.76;100.00
20620;BME280;10469;42.720;23.252;2023-09-19T01:28:31;95253.88;;;15.70;100.00
20620;BME280;10469;42.720;23.252;2023-09-19T01:31:02;95254.13;;;15.69;100.00
20620;BME280;10469;42.720;23.252;2023-09-19T01:33:53;95254.44;;;15.72;100.00
20620;BME280;10469;42.720;23.252;2023-09-19T01:36:16;95256.72;;;15.91;100.00
20620;BME280;10469;42.720;23.252;2023-09-19T01:38:42;95231.69;;;15.68;100.00
20620;BME280;10469;42.720;23.252;2023-09-19T01:41:11;95267.53;;;15.91;100.00
20620;BME280;10469;42.720;23.252;2023-09-19T01:43:42;95257.78;;;15.85;100.00
20620;BME280;10469;42.720;23.252;2023-09-19T01:46:32;95253.84;;;15.65;100.00
20620;BME280;10469;42.720;23.252;2023-09-19T01:54:11;95257.78;;;15.57;100.00
20620;BME280;10469;42.720;23.252;2023-09-19T01:56:48;95259.72;;;15.62;100.00
20620;BME280;10469;42.720;23.252;2023-09-19T01:59:25;95248.31;;;15.23;100.00
20620;BME280;10469;42.720;23.252;2023-09-19T02:01:54;95255.25;;;15.14;100.00
20620;BME280;10469;42.720;23.252;2023-09-19T02:04:20;95242.31;;;15.48;100.00
20620;BME280;10469;42.720;23.252;2023-09-19T02:06:46;95261.25;;;15.48;100.00
20620;BME280;10469;42.720;23.252;2023-09-19T02:09:14;95250.13;;;15.44;100.00
20620;BME280;10469;42.720;23.252;2023-09-19T02:11:42;95240.53;;;15.26;100.00
20620;BME280;10469;42.720;23.252;2023-09-19T02:14:08;95250.25;;;15.27;100.00
20620;BME280;10469;42.720;23.252;2023-09-19T02:16:34;95247.50;;;15.22;100.00
20620;BME280;10469;42.720;23.252;2023-09-19T02:18:59;95258.56;;;15.21;100.00
20620;BME280;10469;42.720;23.252;2023-09-19T02:21:25;95261.38;;;15.04;100.00
20620;BME280;10469;42.720;23.252;2023-09-19T02:23:55;95244.13;;;15.10;100.00
20620;BME280;10469;42.720;23.252;2023-09-19T02:26:20;95254.63;;;15.34;100.00
20620;BME280;10469;42.720;23.252;2023-09-19T02:28:47;95243.91;;;15.44;100.00
20620;BME280;10469;42.720;23.252;2023-09-19T02:31:12;95248.88;;;15.57;100.00
20620;BME280;10469;42.720;23.252;2023-09-19T02:33:38;95250.47;;;15.53;100.00
20620;BME280;10469;42.720;23.252;2023-09-19T02:36:04;95244.72;;;15.44;100.00
20620;BME280;10469;42.720;23.252;2023-09-19T02:38:30;95227.66;;;15.39;100.00
20620;BME280;10469;42.720;23.252;2023-09-19T02:40:56;95240.13;;;15.45;100.00
20620;BME280;10469;42.720;23.252;2023-09-19T02:43:23;95238.31;;;15.50;100.00
20620;BME280;10469;42.720;23.252;2023-09-19T02:45:49;95224.44;;;15.42;100.00
20620;BME280;10469;42.720;23.252;2023-09-19T02:48:16;95225.97;;;15.32;100.00
20620;BME280;10469;42.720;23.252;2023-09-19T02:50:42;95223.34;;;15.38;100.00
20620;BME280;10469;42.720;23.252;2023-09-19T02:53:07;95228.94;;;14.99;100.00
20620;BME280;10469;42.720;23.252;2023-09-19T02:55:33;95228.50;;;15.12;100.00
20620;BME280;10469;42.720;23.252;2023-09-19T02:57:59;95219.84;;;14.83;100.00
20620;BME280;10469;42.720;23.252;2023-09-19T03:00:25;95215.50;;;15.09;100.00
20620;BME280;10469;42.720;23.252;2023-09-19T03:02:56;95217.00;;;14.95;100.00
20620;BME280;10469;42.720;23.252;2023-09-19T03:05:22;95214.66;;;15.03;100.00
20620;BME280;10469;42.720;23.252;2023-09-19T03:07:53;95211.16;;;15.03;100.00
20620;BME280;10469;42.720;23.252;2023-09-19T03:10:19;95206.81;;;14.75;100.00
20620;BME280;10469;42.720;23.252;2023-09-19T03:12:46;95212.78;;;14.77;100.00
20620;BME280;10469;42.720;23.252;2023-09-19T03:15:12;95217.97;;;14.84;100.00
20620;BME280;10469;42.720;23.252;2023-09-19T03:17:37;95204.50;;;14.89;100.00
20620;BME280;10469;42.720;23.252;2023-09-19T03:20:03;95210.16;;;15.14;100.00
20620;BME280;10469;42.720;23.252;2023-09-19T03:22:29;95219.19;;;14.98;100.00
20620;BME280;10469;42.720;23.252;2023-09-19T03:24:55;95194.66;;;14.72;100.00
20620;BME280;10469;42.720;23.252;2023-09-19T03:27:21;95203.69;;;14.61;100.00
20620;BME280;10469;42.720;23.252;2023-09-19T03:29:47;95221.69;;;15.04;100.00
20620;BME280;10469;42.720;23.252;2023-09-19T03:32:12;95214.34;;;14.73;100.00
20620;BME280;10469;42.720;23.252;2023-09-19T03:34:39;95226.69;;;14.64;100.00
20620;BME280;10469;42.720;23.252;2023-09-19T03:37:11;95225.06;;;14.68;100.00
20620;BME280;10469;42.720;23.252;2023-09-19T03:39:37;95233.59;;;14.38;100.00
20620;BME280;10469;42.720;23.252;2023-09-19T03:42:02;95236.56;;;14.14;100.00
20620;BME280;10469;42.720;23.252;2023-09-19T03:44:29;95232.78;;;14.15;100.00
20620;BME280;10469;42.720;23.252;2023-09-19T03:46:56;95231.28;;;14.24;100.00
20620;BME280;10469;42.720;23.252;2023-09-19T03:49:22;95243.66;;;14.42;100.00
20620;BME280;10469;42.720;23.252;2023-09-19T03:51:47;95233.13;;;14.41;100.00
20620;BME280;10469;42.720;23.252;2023-09-19T03:54:13;95236.09;;;14.61;100.00
20620;BME280;10469;42.720;23.252;2023-09-19T03:56:38;95234.47;;;14.60;100.00
20620;BME280;10469;42.720;23.252;2023-09-19T03:59:04;95238.03;;;14.66;100.00
20620;BME280;10469;42.720;23.252;2023-09-19T04:01:30;95244.72;;;14.63;100.00
20620;BME280;10469;42.720;23.252;2023-09-19T04:03:57;95246.19;;;14.49;100.00
20620;BME280;10469;42.720;23.252;2023-09-19T04:06:23;95248.00;;;14.21;100.00
20620;BME280;10469;42.720;23.252;2023-09-19T04:08:48;95241.31;;;14.07;100.00
20620;BME280;10469;42.720;23.252;2023-09-19T04:11:14;95258.72;;;14.16;100.00
20620;BME280;10469;42.720;23.252;2023-09-19T04:13:40;95254.41;;;13.98;100.00
20620;BME280;10469;42.720;23.252;2023-09-19T04:16:05;95222.28;;;13.75;100.00
20620;BME280;10469;42.720;23.252;2023-09-19T04:18:32;95244.94;;;13.96;100.00
20620;BME280;10469;42.720;23.252;2023-09-19T04:20:59;95242.44;;;14.11;100.00
20620;BME280;10469;42.720;23.252;2023-09-19T04:23:28;95240.28;;;14.30;100.00
20620;BME280;10469;42.720;23.252;2023-09-19T04:25:53;95248.41;;;14.52;100.00
20620;BME280;10469;42.720;23.252;2023-09-19T04:28:19;95231.72;;;14.55;100.00
20620;BME280;10469;42.720;23.252;2023-09-19T04:30:44;95229.25;;;14.53;100.00
20620;BME280;10469;42.720;23.252;2023-09-19T04:33:10;95238.41;;;14.52;100.00
20620;BME280;10469;42.720;23.252;2023-09-19T04:35:36;95231.59;;;14.28;100.00
20620;BME280;10469;42.720;23.252;2023-09-19T04:38:04;95244.19;;;14.88;100.00
20620;BME280;10469;42.720;23.252;2023-09-19T04:40:31;95234.81;;;15.23;100.00
20620;BME280;10469;42.720;23.252;2023-09-19T04:42:59;95232.78;;;15.67;100.00
20620;BME280;10469;42.720;23.252;2023-09-19T04:45:28;95226.84;;;15.38;100.00
20620;BME280;10469;42.720;23.252;2023-09-19T04:47:54;95223.19;;;15.54;100.00
20620;BME280;10469;42.720;23.252;2023-09-19T04:50:21;95224.59;;;15.99;100.00
20620;BME280;10469;42.720;23.252;2023-09-19T04:52:51;95226.50;;;16.62;100.00
20620;BME280;10469;42.720;23.252;2023-09-19T04:55:19;95218.00;;;17.67;100.00
20620;BME280;10469;42.720;23.252;2023-09-19T04:57:47;95219.34;;;17.90;100.00
20620;BME280;10469;42.720;23.252;2023-09-19T05:00:17;95227.13;;;18.97;100.00
20620;BME280;10469;42.720;23.252;2023-09-19T05:02:51;95216.53;;;19.74;100.00
20620;BME280;10469;42.720;23.252;2023-09-19T05:05:17;95211.72;;;18.07;100.00
20620;BME280;10469;42.720;23.252;2023-09-19T05:07:45;95180.09;;;18.42;100.00
20620;BME280;10469;42.720;23.252;2023-09-19T05:10:11;95211.94;;;18.91;100.00
20620;BME280;10469;42.720;23.252;2023-09-19T05:12:38;95204.19;;;19.87;100.00
20620;BME280;10469;42.720;23.252;2023-09-19T05:15:05;95219.09;;;20.18;100.00
20620;BME280;10469;42.720;23.252;2023-09-19T05:17:35;95219.34;;;19.24;100.00
20620;BME280;10469;42.720;23.252;2023-09-19T05:20:02;95217.97;;;18.83;100.00
20620;BME280;10469;42.720;23.252;2023-09-19T05:22:41;95225.66;;;18.70;100.00
20620;BME280;10469;42.720;23.252;2023-09-19T05:25:07;95212.94;;;19.05;100.00
20620;BME280;10469;42.720;23.252;2023-09-19T05:27:33;95211.31;;;19.43;100.00
20620;BME280;10469;42.720;23.252;2023-09-19T05:30:01;95205.53;;;20.13;100.00
20620;BME280;10469;42.720;23.252;2023-09-19T05:32:27;95206.41;;;19.79;100.00
20620;BME280;10469;42.720;23.252;2023-09-19T05:34:53;95201.78;;;19.07;100.00
20620;BME280;10469;42.720;23.252;2023-09-19T05:37:19;95204.69;;;19.20;100.00
20620;BME280;10469;42.720;23.252;2023-09-19T05:39:45;95203.31;;;20.15;100.00
20620;BME280;10469;42.720;23.252;2023-09-19T05:42:10;95201.28;;;19.04;100.00
20620;BME280;10469;42.720;23.252;2023-09-19T05:44:36;95200.41;;;19.48;100.00
20620;BME280;10469;42.720;23.252;2023-09-19T05:47:02;95191.31;;;19.63;100.00
20620;BME280;10469;42.720;23.252;2023-09-19T05:49:28;95190.19;;;19.69;100.00
20620;BME280;10469;42.720;23.252;2023-09-19T05:51:53;95210.66;;;17.98;100.00
20620;BME280;10469;42.720;23.252;2023-09-19T05:54:21;95200.19;;;18.46;100.00
20620;BME280;10469;42.720;23.252;2023-09-19T05:56:47;95196.59;;;19.10;100.00
20620;BME280;10469;42.720;23.252;2023-09-19T05:59:15;95199.13;;;18.37;100.00
20620;BME280;10469;42.720;23.252;2023-09-19T06:01:42;95188.72;;;17.79;100.00
20620;BME280;10469;42.720;23.252;2023-09-19T06:04:07;95185.97;;;18.64;100.00
20620;BME280;10469;42.720;23.252;2023-09-19T06:06:33;95181.53;;;19.62;100.00
20620;BME280;10469;42.720;23.252;2023-09-19T06:09:06;95194.59;;;19.65;100.00
20620;BME280;10469;42.720;23.252;2023-09-19T06:11:35;95176.13;;;18.84;100.00
20620;BME280;10469;42.720;23.252;2023-09-19T06:14:02;95190.72;;;18.33;100.00
20620;BME280;10469;42.720;23.252;2023-09-19T06:16:30;95185.09;;;19.23;100.00
20620;BME280;10469;42.720;23.252;2023-09-19T06:18:59;95161.84;;;19.41;100.00
20620;BME280;10469;42.720;23.252;2023-09-19T06:21:27;95170.25;;;20.27;100.00
20620;BME280;10469;42.720;23.252;2023-09-19T06:23:53;95182.91;;;21.22;100.00
20620;BME280;10469;42.720;23.252;2023-09-19T06:26:19;95177.88;;;21.81;100.00
20620;BME280;10469;42.720;23.252;2023-09-19T06:28:45;95171.38;;;21.44;100.00
20620;BME280;10469;42.720;23.252;2023-09-19T06:31:10;95173.63;;;21.89;100.00
20620;BME280;10469;42.720;23.252;2023-09-19T06:33:37;95170.75;;;22.40;100.00
20620;BME280;10469;42.720;23.252;2023-09-19T06:36:06;95173.94;;;20.36;100.00
20620;BME280;10469;42.720;23.252;2023-09-19T06:38:32;95174.59;;;20.04;100.00
20620;BME280;10469;42.720;23.252;2023-09-19T06:41:01;95175.56;;;19.55;100.00
20620;BME280;10469;42.720;23.252;2023-09-19T06:43:30;95168.63;;;19.73;100.00
20620;BME280;10469;42.720;23.252;2023-09-19T06:45:56;95166.72;;;20.02;100.00
20620;BME280;10469;42.720;23.252;2023-09-19T06:48:22;95181.25;;;19.59;100.00
20620;BME280;10469;42.720;23.252;2023-09-19T06:50:50;95164.97;;;19.88;100.00
20620;BME280;10469;42.720;23.252;2023-09-19T06:53:16;95174.56;;;20.76;100.00
20620;BME280;10469;42.720;23.252;2023-09-19T06:55:42;95167.69;;;20.12;100.00
20620;BME280;10469;42.720;23.252;2023-09-19T06:58:09;95158.41;;;20.37;100.00
20620;BME280;10469;42.720;23.252;2023-09-19T07:00:36;95177.66;;;20.88;100.00
20620;BME280;10469;42.720;23.252;2023-09-19T07:03:06;95190.69;;;22.13;100.00
20620;BME280;10469;42.720;23.252;2023-09-19T07:05:39;95183.69;;;21.61;100.00
20620;BME280;10469;42.720;23.252;2023-09-19T07:08:06;95190.44;;;22.10;100.00
20620;BME280;10469;42.720;23.252;2023-09-19T07:10:32;95183.50;;;22.45;100.00
20620;BME280;10469;42.720;23.252;2023-09-19T07:13:02;95181.19;;;22.38;100.00
20620;BME280;10469;42.720;23.252;2023-09-19T07:15:29;95198.53;;;22.01;100.00
20620;BME280;10469;42.720;23.252;2023-09-19T07:17:56;95183.47;;;21.57;100.00
20620;BME280;10469;42.720;23.252;2023-09-19T07:20:23;95186.56;;;21.83;100.00
20620;BME280;10469;42.720;23.252;2023-09-19T07:22:51;95186.94;;;21.06;100.00
20620;BME280;10469;42.720;23.252;2023-09-19T07:25:16;95183.94;;;21.08;100.00
20620;BME280;10469;42.720;23.252;2023-09-19T07:27:42;95193.06;;;20.79;100.00
20620;BME280;10469;42.720;23.252;2023-09-19T07:30:09;95193.94;;;20.74;100.00
20620;BME280;10469;42.720;23.252;2023-09-19T07:32:35;95190.94;;;21.14;100.00
20620;BME280;10469;42.720;23.252;2023-09-19T07:35:04;95194.81;;;21.64;100.00
20620;BME280;10469;42.720;23.252;2023-09-19T07:37:31;95201.78;;;21.38;100.00
20620;BME280;10469;42.720;23.252;2023-09-19T07:39:59;95194.25;;;20.92;100.00
20620;BME280;10469;42.720;23.252;2023-09-19T07:42:26;95192.50;;;20.58;100.00
20620;BME280;10469;42.720;23.252;2023-09-19T07:44:52;95194.16;;;20.97;100.00
20620;BME280;10469;42.720;23.252;2023-09-19T07:47:19;95193.53;;;21.43;100.00
20620;BME280;10469;42.720;23.252;2023-09-19T07:49:49;95188.44;;;21.36;100.00
20620;BME280;10469;42.720;23.252;2023-09-19T07:52:15;95191.34;;;21.91;100.00
20620;BME280;10469;42.720;23.252;2023-09-19T07:54:41;95190.97;;;21.65;100.00
20620;BME280;10469;42.720;23.252;2023-09-19T07:57:09;95198.97;;;21.43;100.00
20620;BME280;10469;42.720;23.252;2023-09-19T07:59:35;95192.03;;;21.50;100.00
20620;BME280;10469;42.720;23.252;2023-09-19T08:02:01;95184.53;;;22.63;100.00
20620;BME280;10469;42.720;23.252;2023-09-19T08:04:30;95168.81;;;23.32;100.00
20620;BME280;10469;42.720;23.252;2023-09-19T08:06:59;95170.91;;;21.42;100.00
20620;BME280;10469;42.720;23.252;2023-09-19T08:09:26;95168.00;;;23.32;100.00
20620;BME280;10469;42.720;23.252;2023-09-19T08:11:51;95173.59;;;23.49;100.00
20620;BME280;10469;42.720;23.252;2023-09-19T08:14:17;95171.56;;;24.08;100.00
20620;BME280;10469;42.720;23.252;2023-09-19T08:16:42;95163.09;;;24.18;100.00
20620;BME280;10469;42.720;23.252;2023-09-19T08:19:09;95152.44;;;23.41;100.00
20620;BME280;10469;42.720;23.252;2023-09-19T08:21:35;95154.94;;;24.93;100.00
20620;BME280;10469;42.720;23.252;2023-09-19T08:24:02;95157.28;;;26.07;99.05
20620;BME280;10469;42.720;23.252;2023-09-19T08:26:30;95165.50;;;27.22;92.10
20620;BME280;10469;42.720;23.252;2023-09-19T08:28:56;95147.34;;;25.76;97.04
20620;BME280;10469;42.720;23.252;2023-09-19T08:31:22;95161.75;;;25.21;100.00
20620;BME280;10469;42.720;23.252;2023-09-19T08:33:49;95176.31;;;23.94;100.00
20620;BME280;10469;42.720;23.252;2023-09-19T08:36:16;95158.47;;;25.97;97.85
20620;BME280;10469;42.720;23.252;2023-09-19T08:38:42;95160.28;;;26.99;89.06
20620;BME280;10469;42.720;23.252;2023-09-19T08:41:08;95165.91;;;25.01;98.57
20620;BME280;10469;42.720;23.252;2023-09-19T08:43:35;95162.81;;;24.86;100.00
20620;BME280;10469;42.720;23.252;2023-09-19T08:46:15;95152.38;;;25.05;100.00
20620;BME280;10469;42.720;23.252;2023-09-19T08:48:46;95139.13;;;25.42;98.61
20620;BME280;10469;42.720;23.252;2023-09-19T08:51:21;95142.97;;;24.32;100.00
20620;BME280;10469;42.720;23.252;2023-09-19T08:53:54;95149.06;;;23.89;100.00
20620;BME280;10469;42.720;23.252;2023-09-19T08:56:24;95141.47;;;23.86;100.00
20620;BME280;10469;42.720;23.252;2023-09-19T08:59:02;95151.09;;;25.20;100.00
20620;BME280;10469;42.720;23.252;2023-09-19T09:01:38;95144.53;;;24.64;100.00
20620;BME280;10469;42.720;23.252;2023-09-19T09:04:09;95151.84;;;23.97;100.00
20620;BME280;10469;42.720;23.252;2023-09-19T09:06:38;95146.88;;;25.66;100.00
20620;BME280;10469;42.720;23.252;2023-09-19T09:09:04;95137.66;;;25.88;95.81
20620;BME280;10469;42.720;23.252;2023-09-19T09:11:33;95146.06;;;25.65;96.77
20620;BME280;10469;42.720;23.252;2023-09-19T09:13:58;95141.53;;;25.87;96.50
20620;BME280;10469;42.720;23.252;2023-09-19T09:16:24;95134.19;;;26.76;91.13
20620;BME280;10469;42.720;23.252;2023-09-19T09:18:51;95128.06;;;27.00;89.79
20620;BME280;10469;42.720;23.252;2023-09-19T09:21:20;95131.16;;;26.39;91.36
20620;BME280;10469;42.720;23.252;2023-09-19T09:23:48;95126.75;;;27.27;86.71
20620;BME280;10469;42.720;23.252;2023-09-19T09:26:15;95121.59;;;26.75;89.74
20620;BME280;10469;42.720;23.252;2023-09-19T09:28:45;95118.06;;;26.45;90.25
20620;BME280;10469;42.720;23.252;2023-09-19T09:31:23;95112.31;;;25.82;91.49
20620;BME280;10469;42.720;23.252;2023-09-19T09:33:53;95104.44;;;25.11;100.00
20620;BME280;10469;42.720;23.252;2023-09-19T09:36:34;95090.88;;;25.41;98.09
20620;BME280;10469;42.720;23.252;2023-09-19T09:39:02;95086.19;;;26.73;91.94
20620;BME280;10469;42.720;23.252;2023-09-19T09:41:41;95089.81;;;27.28;87.85
20620;BME280;10469;42.720;23.252;2023-09-19T09:44:15;95084.22;;;28.27;82.91
20620;BME280;10469;42.720;23.252;2023-09-19T09:46:44;95082.47;;;28.96;76.13
20620;BME280;10469;42.720;23.252;2023-09-19T09:49:26;95089.13;;;26.89;86.05
20620;BME280;10469;42.720;23.252;2023-09-19T09:51:59;95096.84;;;25.34;94.38
20620;BME280;10469;42.720;23.252;2023-09-19T09:54:59;95090.69;;;25.02;99.91
20620;BME280;10469;42.720;23.252;2023-09-19T09:57:33;95092.47;;;25.07;99.83
20620;BME280;10469;42.720;23.252;2023-09-19T10:00:00;95090.84;;;24.71;100.00
20620;BME280;10469;42.720;23.252;2023-09-19T10:02:37;95088.91;;;24.81;100.00
20620;BME280;10469;42.720;23.252;2023-09-19T10:05:13;95079.03;;;24.45;100.00
20620;BME280;10469;42.720;23.252;2023-09-19T10:07:47;95085.91;;;24.34;100.00
20620;BME280;10469;42.720;23.252;2023-09-19T10:10:34;95085.50;;;24.49;100.00
20620;BME280;10469;42.720;23.252;2023-09-19T10:13:10;95079.03;;;23.96;100.00
20620;BME280;10469;42.720;23.252;2023-09-19T10:15:44;95082.75;;;24.09;100.00
20620;BME280;10469;42.720;23.252;2023-09-19T10:18:19;95079.91;;;24.89;100.00
20620;BME280;10469;42.720;23.252;2023-09-19T10:20:46;95085.34;;;24.06;100.00
20620;BME280;10469;42.720;23.252;2023-09-19T10:23:14;95084.25;;;24.90;100.00
20620;BME280;10469;42.720;23.252;2023-09-19T10:25:48;95087.94;;;24.59;100.00
20620;BME280;10469;42.720;23.252;2023-09-19T10:28:16;95081.03;;;24.79;100.00
20620;BME280;10469;42.720;23.252;2023-09-19T10:30:46;95084.56;;;24.62;100.00
20620;BME280;10469;42.720;23.252;2023-09-19T10:33:17;95077.75;;;24.51;100.00
20620;BME280;10469;42.720;23.252;2023-09-19T10:35:46;95087.47;;;24.17;100.00
20620;BME280;10469;42.720;23.252;2023-09-19T10:38:17;95080.66;;;23.97;100.00
20620;BME280;10469;42.720;23.252;2023-09-19T10:40:54;95082.09;;;24.43;100.00
20620;BME280;10469;42.720;23.252;2023-09-19T10:43:22;95066.50;;;24.70;100.00
20620;BME280;10469;42.720;23.252;2023-09-19T10:45:51;95062.50;;;25.11;100.00
20620;BME280;10469;42.720;23.252;2023-09-19T10:48:20;95060.03;;;24.57;100.00
20620;BME280;10469;42.720;23.252;2023-09-19T10:53:40;95041.44;;;24.37;100.00
20620;BME280;10469;42.720;23.252;2023-09-19T10:56:08;95046.97;;;24.63;100.00
20620;BME280;10469;42.720;23.252;2023-09-19T10:58:43;95053.09;;;24.68;100.00
20620;BME280;10469;42.720;23.252;2023-09-19T11:01:10;95054.72;;;24.87;100.00
20620;BME280;10469;42.720;23.252;2023-09-19T11:03:43;95048.41;;;24.51;100.00
20620;BME280;10469;42.720;23.252;2023-09-19T11:06:13;95061.19;;;25.08;100.00
20620;BME280;10469;42.720;23.252;2023-09-19T11:30:43;95033.41;;;25.36;100.00
20620;BME280;10469;42.720;23.252;2023-09-19T11:33:19;95022.97;;;26.35;95.92
20620;BME280;10469;42.720;23.252;2023-09-19T11:36:04;95011.38;;;26.30;93.22
20620;BME280;10469;42.720;23.252;2023-09-19T11:43:49;94999.34;;;25.75;93.91
20620;BME280;10469;42.720;23.252;2023-09-19T11:46:16;95004.41;;;26.02;95.23
20620;BME280;10469;42.720;23.252;2023-09-19T11:48:48;95005.03;;;26.59;93.11
20620;BME280;10469;42.720;23.252;2023-09-19T11:51:22;94995.03;;;27.17;89.32
20620;BME280;10469;42.720;23.252;2023-09-19T11:53:50;94993.75;;;26.01;93.17
20620;BME280;10469;42.720;23.252;2023-09-19T11:56:17;94995.53;;;26.26;94.43
20620;BME280;10469;42.720;23.252;2023-09-19T11:58:44;94994.59;;;26.52;93.92
20620;BME280;10469;42.720;23.252;2023-09-19T12:01:13;94964.75;;;27.74;85.48
20620;BME280;10469;42.720;23.252;2023-09-19T12:03:47;94967.72;;;27.24;86.76
20620;BME280;10469;42.720;23.252;2023-09-19T12:06:16;94959.91;;;28.33;81.80
20620;BME280;10469;42.720;23.252;2023-09-19T12:08:43;94962.34;;;28.74;79.12
20620;BME280;10469;42.720;23.252;2023-09-19T12:11:14;94970.19;;;29.29;75.41
20620;BME280;10469;42.720;23.252;2023-09-19T12:13:44;94960.84;;;29.49;73.11
20620;BME280;10469;42.720;23.252;2023-09-19T12:16:14;94954.31;;;29.25;74.31
20620;BME280;10469;42.720;23.252;2023-09-19T12:18:41;94949.47;;;27.65;84.03
20620;BME280;10469;42.720;23.252;2023-09-19T12:21:24;94947.97;;;28.29;80.55
20620;BME280;10469;42.720;23.252;2023-09-19T12:24:18;94940.09;;;27.20;86.71
20620;BME280;10469;42.720;23.252;2023-09-19T12:26:46;94939.28;;;27.20;87.53
20620;BME280;10469;42.720;23.252;2023-09-19T12:29:21;94939.34;;;26.99;87.40
20620;BME280;10469;42.720;23.252;2023-09-19T12:32:05;94913.50;;;26.58;89.89
20620;BME280;10469;42.720;23.252;2023-09-19T12:34:32;94926.97;;;26.30;93.87
20620;BME280;10469;42.720;23.252;2023-09-19T12:37:12;94929.03;;;26.12;95.43
20620;BME280;10469;42.720;23.252;2023-09-19T12:39:41;94931.31;;;25.81;96.20
20620;BME280;10469;42.720;23.252;2023-09-19T12:42:10;94927.19;;;25.66;97.62
20620;BME280;10469;42.720;23.252;2023-09-19T12:44:41;94934.69;;;24.84;100.00
20620;BME280;10469;42.720;23.252;2023-09-19T12:47:16;94937.22;;;25.06;100.00
20620;BME280;10469;42.720;23.252;2023-09-19T12:50:07;94932.53;;;25.07;100.00
20620;BME280;10469;42.720;23.252;2023-09-19T12:52:39;94918.19;;;25.18;100.00
20620;BME280;10469;42.720;23.252;2023-09-19T12:55:05;94925.56;;;25.26;100.00
20620;BME280;10469;42.720;23.252;2023-09-19T12:57:36;94916.34;;;25.31;100.00
20620;BME280;10469;42.720;23.252;2023-09-19T13:00:03;94899.63;;;25.15;100.00
20620;BME280;10469;42.720;23.252;2023-09-19T13:02:31;94907.19;;;25.18;100.00
20620;BME280;10469;42.720;23.252;2023-09-19T13:04:56;94895.16;;;24.85;100.00
20620;BME280;10469;42.720;23.252;2023-09-19T13:07:42;94911.09;;;25.17;100.00
20620;BME280;10469;42.720;23.252;2023-09-19T13:10:09;94905.50;;;25.43;100.00
20620;BME280;10469;42.720;23.252;2023-09-19T13:12:37;94897.16;;;25.61;99.97
20620;BME280;10469;42.720;23.252;2023-09-19T13:15:10;94896.63;;;25.67;100.00
20620;BME280;10469;42.720;23.252;2023-09-19T13:17:49;94889.41;;;25.24;100.00
20620;BME280;10469;42.720;23.252;2023-09-19T13:20:24;94881.66;;;25.26;100.00
20620;BME280;10469;42.720;23.252;2023-09-19T13:22:53;94887.94;;;25.65;99.01
20620;BME280;10469;42.720;23.252;2023-09-19T13:25:21;94896.22;;;25.57;98.42
20620;BME280;10469;42.720;23.252;2023-09-19T13:27:51;94889.63;;;25.49;99.70
20620;BME280;10469;42.720;23.252;2023-09-19T13:30:20;94889.19;;;25.68;98.86
20620;BME280;10469;42.720;23.252;2023-09-19T13:32:46;94888.13;;;25.90;97.71
20620;BME280;10469;42.720;23.252;2023-09-19T13:35:15;94894.69;;;25.68;97.94
20620;BME280;10469;42.720;23.252;2023-09-19T13:37:42;94882.38;;;25.83;96.87
20620;BME280;10469;42.720;23.252;2023-09-19T13:40:12;94887.53;;;25.75;97.13